Time;durP1;ratioP1;P1;durP2;ratioP2;P2;SDS_P1;SDS_P2;PMS_P1;PMS_P2;Temp;Humidity;BMP_temperature;BMP_pressure;BME280_temperature;BME280_humidity;BME280_pressure;Samples;Min_cycle;Max_cycle;Signal;HPM_P1;HPM_P2
2022/03/15 00:00:30;;;;;;;22.55;10.13;;;5.00;99.90;;;4.55;100.00;98679.69;5002369;28;20077;-73
2022/03/15 00:02:57;;;;;;;28.80;13.55;;;5.10;99.90;;;4.44;100.00;98683.13;5006307;28;20126;-73
2022/03/15 00:05:24;;;;;;;29.75;15.27;;;5.10;99.90;;;4.49;100.00;98687.41;5002983;28;20046;-71
2022/03/15 00:07:52;;;;;;;30.88;16.52;;;5.10;99.90;;;4.16;100.00;98678.00;5002805;28;20058;-73
2022/03/15 00:10:21;;;;;;;26.27;13.73;;;5.10;99.90;;;4.25;100.00;98677.16;4998566;28;20108;-73
2022/03/15 00:12:48;;;;;;;22.15;11.73;;;5.00;99.90;;;4.22;100.00;98672.00;5004194;28;20133;-71
2022/03/15 00:15:15;;;;;;;24.95;13.27;;;4.90;99.90;;;4.29;100.00;98669.44;5005457;28;20133;-71
2022/03/15 00:17:44;;;;;;;27.83;15.82;;;4.90;99.90;;;4.00;100.00;98674.56;5008465;28;20502;-72
2022/03/15 00:20:20;;;;;;;30.25;14.95;;;4.90;99.90;;;4.20;100.00;98666.88;5015237;28;20125;-72
2022/03/15 00:22:49;;;;;;;22.10;13.30;;;4.90;99.90;;;4.24;100.00;98671.13;5005416;28;20106;-72
2022/03/15 00:25:18;;;;;;;23.92;12.85;;;4.90;99.90;;;4.31;100.00;98672.88;5005437;28;20128;-73
2022/03/15 00:27:47;;;;;;;22.98;13.50;;;4.90;99.90;;;4.36;100.00;98663.44;5002881;28;20136;-72
2022/03/15 00:30:15;;;;;;;26.48;13.38;;;4.90;99.90;;;4.32;100.00;98676.28;5001031;28;20053;-72
2022/03/15 00:32:43;;;;;;;24.23;13.10;;;5.00;99.90;;;4.39;100.00;98668.56;5000233;28;20152;-71
2022/03/15 00:35:17;;;;;;;23.33;13.85;;;5.00;99.90;;;4.22;100.00;98672.88;5001478;28;20439;-72
2022/03/15 00:37:51;;;;;;;23.63;12.52;;;4.90;99.90;;;4.00;100.00;98669.41;4999290;28;20145;-72
2022/03/15 00:40:19;;;;;;;22.88;12.40;;;4.90;99.90;;;4.09;100.00;98669.41;5001693;28;20049;-71
2022/03/15 00:42:53;;;;;;;21.02;12.70;;;4.90;99.90;;;4.24;100.00;98662.56;5001601;28;20085;-72
2022/03/15 00:45:23;;;;;;;23.80;13.68;;;4.80;99.90;;;4.25;100.00;98649.72;5002372;28;20081;-72
2022/03/15 00:47:55;;;;;;;24.17;13.00;;;4.90;99.90;;;4.37;100.00;98649.72;5006404;28;20591;-72
2022/03/15 00:50:22;;;;;;;24.08;10.27;;;4.80;99.90;;;4.36;100.00;98666.00;5006090;28;20077;-71
2022/03/15 00:52:50;;;;;;;20.48;11.38;;;4.80;99.90;;;4.28;100.00;98659.16;4999772;28;20100;-72
2022/03/15 00:55:19;;;;;;;22.55;13.35;;;4.90;99.90;;;4.12;100.00;98648.00;5003470;28;20149;-73
2022/03/15 00:57:46;;;;;;;22.45;12.82;;;4.90;99.90;;;4.02;100.00;98646.31;5001639;28;20072;-72
2022/03/15 01:00:15;;;;;;;22.98;13.05;;;4.80;99.90;;;4.17;100.00;98644.59;5003015;28;20054;-72
2022/03/15 01:02:43;;;;;;;28.75;14.05;;;4.80;99.90;;;4.26;100.00;98636.00;5002789;28;20050;-72
2022/03/15 01:05:10;;;;;;;22.70;12.15;;;4.80;99.90;;;4.16;100.00;98639.44;4997925;28;20049;-72
2022/03/15 01:07:37;;;;;;;18.10;11.63;;;4.80;99.90;;;4.05;100.00;98647.16;5000655;28;20180;-72
2022/03/15 01:10:06;;;;;;;20.42;10.20;;;4.70;99.90;;;4.11;100.00;98636.03;4998042;28;20050;-72
2022/03/15 01:12:33;;;;;;;16.45;8.88;;;4.70;99.90;;;4.25;100.00;98636.03;4998094;28;20050;-72
2022/03/15 01:15:00;;;;;;;13.60;7.32;;;4.80;99.90;;;4.26;100.00;98635.16;5001505;28;20564;-72
2022/03/15 01:17:27;;;;;;;10.23;5.50;;;4.90;99.90;;;4.29;100.00;98628.31;5002760;28;20136;-71
2022/03/15 01:19:54;;;;;;;11.02;5.25;;;4.90;99.90;;;4.35;100.00;98628.28;5002963;28;20372;-72
2022/03/15 01:22:21;;;;;;;7.68;3.90;;;4.90;99.90;;;4.37;100.00;98626.56;5004440;28;20154;-71
2022/03/15 01:24:48;;;;;;;12.10;4.45;;;4.90;99.90;;;4.12;100.00;98627.44;5001337;28;20050;-71
2022/03/15 01:27:15;;;;;;;8.10;3.13;;;4.80;99.90;;;4.13;100.00;98621.47;5005584;28;20045;-72
2022/03/15 01:29:43;;;;;;;5.15;2.33;;;4.80;99.90;;;4.27;100.00;98621.47;4999932;28;20137;-72
2022/03/15 01:32:11;;;;;;;8.35;3.15;;;4.80;99.90;;;4.31;100.00;98623.16;5003636;28;20059;-71
2022/03/15 01:34:39;;;;;;;7.15;3.58;;;4.90;99.90;;;4.31;100.00;98625.72;4998999;28;20050;-71
2022/03/15 01:37:05;;;;;;;12.88;7.25;;;4.90;99.90;;;3.74;100.00;98624.00;5001264;28;20128;-71
2022/03/15 01:39:33;;;;;;;14.20;7.15;;;4.80;99.90;;;3.94;100.00;98620.59;5002303;28;20471;-71
2022/03/15 01:42:00;;;;;;;34.58;16.30;;;4.80;99.90;;;4.09;100.00;98609.47;5018131;28;20125;-72
2022/03/15 01:44:29;;;;;;;34.63;15.90;;;4.80;99.90;;;4.05;100.00;98615.47;5001632;28;20160;-72
2022/03/15 01:46:56;;;;;;;13.15;7.18;;;4.80;99.90;;;3.96;100.00;98612.03;5006308;28;20172;-71
2022/03/15 01:49:23;;;;;;;11.27;5.05;;;4.70;99.90;;;4.03;100.00;98614.59;5007186;28;20136;-71
2022/03/15 01:51:51;;;;;;;11.50;6.03;;;4.70;99.90;;;4.00;100.00;98609.47;5005099;28;20116;-72
2022/03/15 01:54:22;;;;;;;19.08;9.55;;;4.70;99.90;;;4.13;100.00;98606.91;5004759;28;20418;-72
2022/03/15 01:56:49;;;;;;;14.57;7.65;;;4.70;99.90;;;4.42;100.00;98611.16;4993748;28;20480;-71
2022/03/15 01:59:17;;;;;;;14.82;6.93;;;4.90;99.90;;;4.15;100.00;98612.91;5004056;28;20045;-71
2022/03/15 02:01:46;;;;;;;11.68;5.55;;;4.90;99.90;;;4.24;100.00;98613.75;5001830;28;20077;-72
2022/03/15 02:04:15;;;;;;;7.97;3.50;;;4.90;99.90;;;4.06;100.00;98604.31;5003411;28;20053;-71
2022/03/15 02:06:42;;;;;;;7.85;3.22;;;4.80;99.90;;;4.07;100.00;98612.03;5005742;28;20042;-71
2022/03/15 02:09:11;;;;;;;9.35;4.50;;;4.70;99.90;;;3.96;100.00;98604.31;5004373;28;20117;-71
2022/03/15 02:11:40;;;;;;;10.45;3.30;;;4.60;99.90;;;4.14;100.00;98613.75;5003273;28;20077;-72
2022/03/15 02:14:07;;;;;;;4.68;1.75;;;4.70;99.90;;;4.30;100.00;98616.31;5023403;28;20415;-71
2022/03/15 02:16:34;;;;;;;5.63;2.20;;;4.80;99.90;;;4.36;100.00;98600.91;5006880;28;20129;-71
2022/03/15 02:19:03;;;;;;;7.53;3.85;;;4.90;99.90;;;4.03;100.00;98594.06;5005621;28;20057;-72
2022/03/15 02:21:30;;;;;;;6.60;2.65;;;4.90;99.90;;;4.05;100.00;98595.75;5007169;28;20080;-72
2022/03/15 02:23:57;;;;;;;7.30;2.28;;;4.80;99.90;;;4.34;100.00;98606.03;5008091;28;20130;-72
2022/03/15 02:26:25;;;;;;;8.20;1.83;;;4.90;99.90;;;4.57;100.00;98600.00;5002822;28;20504;-71
2022/03/15 02:28:51;;;;;;;5.65;2.17;;;5.10;99.90;;;4.60;100.00;98605.13;5003670;28;20149;-71
2022/03/15 02:31:20;;;;;;;6.40;2.28;;;5.10;99.90;;;4.79;100.00;98598.25;5003879;28;20137;-72
2022/03/15 02:33:48;;;;;;;5.78;1.80;;;5.30;99.90;;;4.85;100.00;98584.47;5003951;28;20053;-71
2022/03/15 02:36:16;;;;;;;5.30;2.03;;;5.40;99.90;;;4.94;100.00;98593.00;5003830;28;20508;-71
2022/03/15 02:38:44;;;;;;;5.00;1.55;;;5.40;99.90;;;4.97;98.41;98580.16;5003269;28;20534;-72
2022/03/15 02:41:12;;;;;;;4.00;1.60;;;5.50;99.90;;;4.62;89.98;98567.41;5004204;28;20527;-72
2022/03/15 02:43:43;;;;;;;6.45;2.60;;;5.40;99.90;;;4.39;94.84;98570.88;5005420;28;20464;-72
2022/03/15 02:46:11;;;;;;;7.65;2.15;;;5.20;99.90;;;4.32;99.55;98578.63;5019057;28;20137;-72
2022/03/15 02:48:42;;;;;;;4.45;1.63;;;5.10;99.90;;;4.65;97.69;98574.25;4998954;28;20054;-72
2022/03/15 02:51:10;;;;;;;8.15;2.40;;;5.20;99.90;;;4.56;95.17;98581.16;5003975;28;20113;-72
2022/03/15 02:53:38;;;;;;;5.13;1.63;;;5.10;99.90;;;4.61;93.30;98581.97;5005191;28;20141;-71
2022/03/15 02:56:10;;;;;;;5.78;1.90;;;5.20;99.90;;;4.67;92.99;98559.69;5000273;28;20062;-72
2022/03/15 02:58:39;;;;;;;;;;;5.20;99.90;;;4.63;93.65;98568.25;5003909;28;20064;-72
2022/03/15 03:01:08;;;;;;;4.32;1.83;;;5.10;99.90;;;4.69;92.15;98563.09;5005311;28;19928;-72
2022/03/15 03:03:36;;;;;;;3.58;1.67;;;5.10;99.90;;;4.46;92.44;98565.75;5005263;28;20047;-72
2022/03/15 03:06:04;;;;;;;7.45;1.98;;;5.20;99.90;;;4.50;92.75;98560.59;5001894;28;20539;-72
2022/03/15 03:08:32;;;;;;;4.75;2.28;;;5.20;99.90;;;4.54;93.09;98564.88;5003559;28;20136;-72
2022/03/15 03:11:00;;;;;;;5.13;1.83;;;5.10;99.90;;;4.35;94.54;98558.88;5005173;28;20129;-72
2022/03/15 03:13:28;;;;;;;8.88;2.05;;;5.00;99.90;;;4.36;98.64;98555.47;5006856;28;20054;-72
2022/03/15 03:15:57;;;;;;;5.47;1.73;;;5.00;99.90;;;4.45;99.10;98564.88;5004649;28;20069;-72
2022/03/15 03:18:30;;;;;;;5.20;1.73;;;5.00;99.90;;;4.46;99.59;98560.59;4987823;28;20081;-72
2022/03/15 03:20:58;;;;;;;6.73;2.10;;;5.10;99.90;;;4.42;100.00;98557.16;4989980;28;20074;-71
2022/03/15 03:23:25;;;;;;;8.77;2.05;;;5.10;99.90;;;4.41;100.00;98558.03;5005606;28;20787;-72
2022/03/15 03:25:52;;;;;;;6.18;1.70;;;5.10;99.90;;;4.52;100.00;98550.31;5002059;28;20183;-72
2022/03/15 03:28:19;;;;;;;5.30;1.27;;;5.10;99.90;;;4.51;100.00;98554.56;5004491;28;20094;-71
2022/03/15 03:30:47;;;;;;;5.72;1.52;;;5.00;99.90;;;4.66;100.00;98556.25;5017252;28;20050;-72
2022/03/15 03:33:16;;;;;;;8.43;2.00;;;5.10;99.90;;;4.33;100.00;98549.47;5007421;28;20070;-71
2022/03/15 03:35:44;;;;;;;4.32;1.70;;;5.10;99.90;;;4.54;100.00;98552.00;5009147;28;20516;-72
2022/03/15 03:38:12;;;;;;;8.00;2.05;;;5.10;99.90;;;4.43;100.00;98547.75;5003361;28;20139;-71
2022/03/15 03:40:39;;;;;;;4.38;1.48;;;5.10;99.90;;;4.53;100.00;98558.00;5005752;28;20078;-71
2022/03/15 03:43:06;;;;;;;4.70;1.50;;;5.10;99.90;;;4.40;100.00;98549.47;5003216;28;20081;-71
2022/03/15 03:45:37;;;;;;;4.57;1.92;;;5.10;99.90;;;4.41;100.00;98555.47;5007431;28;20456;-73
2022/03/15 03:48:05;;;;;;;5.32;2.38;;;5.10;99.90;;;4.35;100.00;98558.88;5006069;28;20047;-72
2022/03/15 03:50:32;;;;;;;7.60;1.50;;;5.10;99.90;;;4.33;100.00;98545.22;5004239;28;20456;-72
2022/03/15 03:52:59;;;;;;;5.75;1.60;;;5.10;99.90;;;4.40;100.00;98549.47;5005470;28;20054;-72
2022/03/15 03:55:27;;;;;;;4.95;2.15;;;5.10;99.90;;;4.56;100.00;98546.84;5003421;28;20045;-72
2022/03/15 03:57:54;;;;;;;4.35;1.20;;;5.20;99.90;;;4.45;100.00;98538.31;4988523;28;20508;-72
2022/03/15 04:00:21;;;;;;;7.95;1.50;;;5.20;99.90;;;4.43;100.00;98534.91;5003753;28;20133;-72
2022/03/15 04:02:48;;;;;;;8.32;1.85;;;5.10;99.90;;;4.36;100.00;98534.06;4999642;28;20133;-72
2022/03/15 04:05:15;;;;;;;5.00;2.05;;;5.10;99.90;;;4.33;100.00;98532.38;5003443;28;20404;-72
2022/03/15 04:07:43;;;;;;;5.35;1.38;;;5.00;99.90;;;4.44;100.00;98532.31;5004985;28;20129;-72
2022/03/15 04:10:10;;;;;;;3.90;1.77;;;5.10;99.90;;;4.40;100.00;98534.06;5003925;28;20046;-72
2022/03/15 04:12:38;;;;;;;7.05;1.90;;;5.10;99.90;;;4.27;100.00;98527.22;5007482;28;20052;-72
2022/03/15 04:15:06;;;;;;;5.03;1.70;;;5.00;99.90;;;4.37;100.00;98531.47;5007475;28;20089;-72
2022/03/15 04:17:34;;;;;;;3.70;1.40;;;5.00;99.90;;;4.24;100.00;98534.06;5004264;28;20483;-73
2022/03/15 04:20:03;;;;;;;4.90;1.70;;;5.00;99.90;;;4.15;100.00;98537.50;5001418;28;20046;-72
2022/03/15 04:22:30;;;;;;;7.22;2.28;;;4.90;99.90;;;4.14;100.00;98526.38;5008109;28;20069;-72
2022/03/15 04:24:57;;;;;;;7.88;2.38;;;4.90;99.90;;;4.19;100.00;98527.22;5013117;28;20120;-72
2022/03/15 04:27:24;;;;;;;9.23;1.95;;;4.90;99.90;;;4.30;100.00;98519.50;5015658;28;20038;-72
2022/03/15 04:29:51;;;;;;;4.82;1.70;;;5.00;99.90;;;4.45;100.00;98517.75;5011216;28;20050;-72
2022/03/15 04:32:18;;;;;;;3.75;1.30;;;5.10;99.90;;;4.38;100.00;98512.63;5018208;28;20623;-72
2022/03/15 04:34:45;;;;;;;5.85;2.00;;;5.10;99.90;;;4.25;100.00;98510.94;5015134;28;20435;-72
2022/03/15 04:37:12;;;;;;;5.75;1.77;;;5.10;99.90;;;4.32;100.00;98506.66;5004215;28;20137;-72
2022/03/15 04:39:39;;;;;;;6.80;1.67;;;5.00;99.90;;;4.44;100.00;98498.91;4995990;28;20420;-72
2022/03/15 04:42:07;;;;;;;6.07;1.88;;;5.00;99.90;;;4.47;100.00;98506.63;4997206;28;20468;-72
2022/03/15 04:44:34;;;;;;;3.55;1.40;;;5.00;99.90;;;4.46;100.00;98491.19;4998556;28;20153;-71
2022/03/15 04:47:01;;;;;;;5.45;2.13;;;5.00;99.90;;;4.49;100.00;98493.75;5001870;28;20073;-72
2022/03/15 04:49:28;;;;;;;3.75;1.60;;;5.00;99.90;;;4.46;100.00;98493.75;5002921;28;20054;-72
2022/03/15 04:51:56;;;;;;;2.78;1.20;;;5.00;99.90;;;4.54;100.00;98492.03;5003481;28;20106;-72
2022/03/15 04:54:23;;;;;;;2.97;1.27;;;5.10;99.90;;;4.65;100.00;98492.81;5005208;28;20123;-72
2022/03/15 04:56:51;;;;;;;5.72;1.30;;;5.10;99.90;;;4.61;100.00;98491.97;5006365;28;20077;-72
2022/03/15 04:59:17;;;;;;;7.38;1.40;;;5.00;99.90;;;4.53;100.00;98491.16;5001664;28;20046;-72
2022/03/15 05:01:44;;;;;;;6.13;1.80;;;5.00;99.90;;;4.31;100.00;98497.22;5003885;28;20153;-72
2022/03/15 05:04:11;;;;;;;5.32;1.55;;;4.90;99.90;;;4.25;100.00;98492.13;5003343;28;20112;-72
2022/03/15 05:06:39;;;;;;;3.33;1.27;;;4.90;99.90;;;4.17;100.00;98494.69;5002696;28;20050;-72
2022/03/15 05:09:06;;;;;;;4.07;1.65;;;4.90;99.90;;;4.13;100.00;98498.16;4999156;28;20484;-72
2022/03/15 05:11:34;;;;;;;7.05;1.70;;;4.90;99.90;;;4.06;100.00;98497.28;5001025;28;20126;-73
2022/03/15 05:14:01;;;;;;;6.35;2.08;;;4.80;99.90;;;4.03;100.00;98501.56;5005182;28;20419;-73
2022/03/15 05:16:28;;;;;;;2.75;1.67;;;4.80;99.90;;;3.97;100.00;98510.16;5004434;28;20593;-72
2022/03/15 05:18:56;;;;;;;4.03;1.58;;;4.80;99.90;;;4.05;100.00;98510.13;5000389;28;20087;-72
2022/03/15 05:21:27;;;;;;;7.88;2.00;;;4.70;99.90;;;4.09;100.00;98515.25;5003445;28;20137;-72
2022/03/15 05:23:54;;;;;;;4.32;1.67;;;4.80;99.90;;;4.30;100.00;98508.38;5008040;28;20092;-73
2022/03/15 05:26:22;;;;;;;2.75;1.40;;;4.90;99.90;;;4.14;100.00;98507.53;5007631;28;20104;-73
2022/03/15 05:28:51;;;;;;;6.10;1.83;;;4.90;99.90;;;4.20;100.00;98507.53;5000621;28;20218;-73
2022/03/15 05:31:23;;;;;;;3.47;1.20;;;4.90;99.90;;;4.31;100.00;98503.22;5004104;28;20611;-73
2022/03/15 05:33:51;;;;;;;5.28;1.83;;;4.90;99.90;;;4.21;100.00;98492.97;5003244;28;20132;-73
2022/03/15 05:36:19;;;;;;;3.65;1.23;;;4.90;99.90;;;4.24;100.00;98504.09;5008202;28;20046;-73
2022/03/15 05:38:46;;;;;;;3.67;1.60;;;4.90;99.90;;;4.43;100.00;98504.06;5005766;28;20042;-73
2022/03/15 05:41:13;;;;;;;2.50;1.20;;;4.90;99.90;;;4.32;100.00;98493.81;5006337;28;20137;-73
2022/03/15 05:43:53;;;;;;;4.40;1.30;;;4.90;99.90;;;4.33;100.00;98492.94;5008955;28;20042;-73
2022/03/15 05:46:20;;;;;;;5.25;1.42;;;4.90;99.90;;;4.24;100.00;98493.81;5006475;28;20052;-73
2022/03/15 05:48:47;;;;;;;7.32;2.15;;;4.90;99.90;;;4.23;100.00;98498.97;5005175;28;20073;-73
2022/03/15 05:51:14;;;;;;;3.03;1.10;;;4.80;99.90;;;4.26;100.00;98492.09;5008189;28;20046;-73
2022/03/15 05:53:41;;;;;;;3.25;1.30;;;4.90;99.90;;;4.41;100.00;98496.34;5002282;28;20527;-73
2022/03/15 05:56:08;;;;;;;3.80;1.35;;;5.00;99.90;;;4.70;100.00;98488.53;5003763;28;20119;-73
2022/03/15 05:58:36;;;;;;;4.30;1.40;;;5.10;99.90;;;4.74;100.00;98490.19;5007590;28;20088;-73
2022/03/15 06:01:03;;;;;;;4.88;1.30;;;5.10;99.90;;;4.46;100.00;98492.03;4987792;28;20550;-72
2022/03/15 06:03:30;;;;;;;7.00;1.35;;;5.10;99.90;;;4.58;100.00;98485.97;5005464;28;20539;-73
2022/03/15 06:05:57;;;;;;;3.63;1.58;;;5.10;99.90;;;4.71;100.00;98476.50;5006242;28;20052;-72
2022/03/15 06:08:24;;;;;;;7.60;2.53;;;5.20;99.90;;;4.66;100.00;98475.69;5005346;28;20337;-73
2022/03/15 06:10:52;;;;;;;8.27;4.93;;;5.20;99.90;;;4.28;100.00;98471.53;5004436;28;20047;-73
2022/03/15 06:13:19;;;;;;;18.98;6.88;;;5.20;99.90;;;4.14;100.00;98475.00;5004412;28;20092;-73
2022/03/15 06:15:46;;;;;;;16.95;9.05;;;5.10;99.90;;;4.06;100.00;98473.28;5021414;28;20090;-73
2022/03/15 06:18:13;;;;;;;20.40;9.43;;;5.10;99.90;;;3.89;100.00;98473.34;5004933;28;20136;-73
2022/03/15 06:20:40;;;;;;;19.88;8.38;;;5.10;99.90;;;3.80;100.00;98479.34;5001976;28;20092;-73
2022/03/15 06:23:07;;;;;;;11.30;6.53;;;5.10;99.90;;;3.93;100.00;98477.63;5008262;28;20149;-72
2022/03/15 06:25:34;;;;;;;16.27;6.65;;;5.10;99.90;;;4.32;100.00;98481.81;5005092;28;20504;-73
2022/03/15 06:28:01;;;;;;;16.17;7.55;;;5.10;99.90;;;4.29;100.00;98481.81;5005667;28;20053;-73
2022/03/15 06:30:28;;;;;;;11.73;4.80;;;5.20;99.90;;;4.30;100.00;98482.66;5004805;28;20125;-73
2022/03/15 06:32:56;;;;;;;11.10;4.70;;;5.20;99.90;;;4.22;100.00;98486.97;5009507;28;20133;-73
2022/03/15 06:35:23;;;;;;;13.93;7.40;;;5.20;99.90;;;4.57;100.00;98486.88;5006274;28;20154;-73
2022/03/15 06:37:50;;;;;;;13.77;6.68;;;5.20;99.90;;;4.43;100.00;98488.63;5022609;28;20133;-73
2022/03/15 06:40:25;;;;;;;10.35;5.07;;;5.20;99.90;;;4.53;100.00;98480.00;5003474;28;20432;-73
2022/03/15 06:42:54;;;;;;;18.48;8.38;;;5.30;99.90;;;4.32;100.00;98480.94;5006587;28;20066;-72
2022/03/15 06:45:22;;;;;;;16.55;8.63;;;5.40;99.90;;;4.23;100.00;98481.81;5003486;28;20451;-72
2022/03/15 06:47:50;;;;;;;15.15;8.25;;;5.50;99.90;;;4.56;100.00;98480.88;5006020;28;20053;-72
2022/03/15 06:50:17;;;;;;;13.70;7.40;;;5.30;99.90;;;4.71;100.00;98482.50;5002773;28;20081;-72
2022/03/15 06:52:46;;;;;;;18.08;8.95;;;5.30;99.90;;;4.53;100.00;98480.88;5004542;28;20068;-72
2022/03/15 06:55:14;;;;;;;15.98;8.10;;;5.40;99.90;;;4.58;100.00;98475.69;5000305;28;20542;-72
2022/03/15 06:57:41;;;;;;;15.25;8.07;;;5.50;99.90;;;4.48;100.00;98468.91;5005125;28;20092;-72
2022/03/15 07:00:13;;;;;;;12.68;7.38;;;5.50;99.90;;;4.88;100.00;98473.84;5001025;28;20136;-72
2022/03/15 07:02:41;;;;;;;10.80;4.95;;;5.50;99.90;;;4.83;100.00;98471.28;5004980;28;20054;-71
2022/03/15 07:05:09;;;;;;;13.68;6.68;;;5.60;99.90;;;4.94;100.00;98466.94;5001895;28;20053;-72
2022/03/15 07:07:38;;;;;;;10.00;4.88;;;5.70;99.90;;;5.24;100.00;98450.47;5003832;28;20082;-72
2022/03/15 07:10:07;;;;;;;11.48;5.93;;;5.80;99.90;;;5.08;100.00;98454.00;5001403;28;20050;-72
2022/03/15 07:12:34;;;;;;;12.10;6.20;;;5.90;99.90;;;4.89;100.00;98449.84;5002489;28;20081;-72
2022/03/15 07:15:03;;;;;;;13.70;7.43;;;5.90;99.90;;;4.66;100.00;98457.69;5003679;28;20112;-72
2022/03/15 07:17:31;;;;;;;15.88;8.13;;;5.90;99.90;;;4.76;100.00;98451.63;5001104;28;20130;-73
2022/03/15 07:19:59;;;;;;;18.98;9.93;;;5.80;99.90;;;4.67;100.00;98455.09;4999752;28;20117;-72
2022/03/15 07:22:27;;;;;;;15.00;9.55;;;5.70;99.90;;;4.46;100.00;98457.78;5001657;28;20551;-72
2022/03/15 07:24:54;;;;;;;21.52;10.85;;;5.70;99.90;;;4.49;100.00;98455.16;5002451;28;20597;-72
2022/03/15 07:27:22;;;;;;;14.27;9.20;;;5.70;99.90;;;4.89;100.00;98455.84;5006000;28;20103;-72
2022/03/15 07:29:49;;;;;;;19.15;8.32;;;5.70;99.90;;;5.12;100.00;98444.56;5001564;28;20523;-72
2022/03/15 07:32:15;;;;;;;11.38;6.40;;;5.80;99.90;;;5.22;100.00;98433.31;5003703;28;20085;-73
2022/03/15 07:34:43;;;;;;;12.88;6.88;;;5.90;99.90;;;5.50;100.00;98427.97;5003836;28;20108;-72
2022/03/15 07:37:11;;;;;;;13.73;6.57;;;6.00;99.90;;;5.49;100.00;98421.94;5003717;28;20053;-72
2022/03/15 07:39:38;;;;;;;20.02;8.10;;;6.10;99.90;;;5.07;100.00;98424.00;4996870;28;20433;-72
2022/03/15 07:42:05;;;;;;;25.33;10.88;;;6.00;99.90;;;4.98;100.00;98429.22;5000907;28;20054;-72
2022/03/15 07:44:32;;;;;;;18.30;8.77;;;6.00;99.90;;;4.79;100.00;98418.19;4996005;28;20125;-72
2022/03/15 07:46:59;;;;;;;12.18;5.43;;;6.00;99.90;;;5.02;100.00;98418.03;5002005;28;20145;-72
2022/03/15 07:49:26;;;;;;;12.07;5.70;;;6.00;99.90;;;5.16;100.00;98425.66;4996215;28;20054;-72
2022/03/15 07:51:54;;;;;;;13.13;5.15;;;6.00;99.90;;;5.28;100.00;98424.69;4996453;28;20054;-72
2022/03/15 07:54:21;;;;;;;9.55;4.78;;;6.10;99.90;;;5.36;99.17;98421.22;5004085;28;20046;-72
2022/03/15 07:56:50;;;;;;;14.32;5.60;;;6.20;99.90;;;5.47;93.42;98421.09;5001557;28;20125;-72
2022/03/15 07:59:21;;;;;;;13.30;5.72;;;6.30;99.90;;;5.30;94.00;98420.41;5003622;28;20042;-72
2022/03/15 08:01:49;;;;;;;10.00;6.00;;;6.30;99.90;;;5.54;94.38;98415.06;5000757;28;20050;-71
2022/03/15 08:04:17;;;;;;;11.20;6.75;;;6.40;99.90;;;5.66;93.52;98412.34;5004318;28;20069;-72
2022/03/15 08:06:43;;;;;;;19.30;8.05;;;6.50;99.90;;;5.55;93.43;98419.31;4999627;28;20066;-72
2022/03/15 08:09:11;;;;;;;11.23;5.78;;;6.50;99.90;;;5.21;94.99;98417.03;4999954;28;20113;-72
2022/03/15 08:11:40;;;;;;;10.35;5.38;;;6.50;99.90;;;5.30;94.55;98426.41;5002434;28;20144;-72
2022/03/15 08:14:09;;;;;;;11.48;6.07;;;6.50;99.90;;;5.39;94.69;98428.03;5002901;28;20610;-72
2022/03/15 08:16:36;;;;;;;17.88;7.68;;;6.50;99.90;;;5.59;92.68;98425.31;4997783;28;20419;-73
2022/03/15 08:19:04;;;;;;;17.63;8.55;;;6.50;99.90;;;5.51;94.75;98429.66;5003514;28;20050;-72
2022/03/15 08:21:31;;;;;;;16.60;8.40;;;6.50;99.90;;;5.82;93.78;98418.22;5013418;28;20149;-72
2022/03/15 08:23:58;;;;;;;17.48;8.93;;;6.60;99.90;;;6.04;91.64;98416.31;5002573;28;20141;-72
2022/03/15 08:26:25;;;;;;;20.55;10.48;;;6.80;99.90;;;5.96;92.26;98415.50;4998521;28;20412;-73
2022/03/15 08:28:52;;;;;;;27.23;13.00;;;6.80;99.90;;;6.06;92.45;98408.53;4999243;28;20042;-72
2022/03/15 08:31:20;;;;;;;27.98;14.07;;;6.90;99.90;;;6.15;92.58;98403.28;5002902;28;20082;-72
2022/03/15 08:33:47;;;;;;;26.70;11.52;;;6.90;99.90;;;6.16;93.06;98398.97;4997091;28;20519;-72
2022/03/15 08:36:14;;;;;;;18.42;9.82;;;7.00;99.90;;;6.18;94.43;98392.06;5004001;28;20403;-73
2022/03/15 08:38:42;;;;;;;20.27;9.40;;;7.10;99.90;;;6.31;95.32;98395.34;5000255;28;20134;-71
2022/03/15 08:41:10;;;;;;;18.42;9.75;;;7.20;99.90;;;6.25;95.50;98386.00;4998678;28;20073;-72
2022/03/15 08:43:37;;;;;;;20.30;8.82;;;7.30;99.90;;;6.48;95.34;98383.13;5000761;28;20096;-72
2022/03/15 08:46:05;;;;;;;17.85;8.23;;;7.30;99.90;;;6.59;93.70;98378.66;5002389;28;20141;-72
2022/03/15 08:48:32;;;;;;;13.43;6.75;;;7.30;99.90;;;6.74;93.55;98366.41;5017332;28;20046;-71
2022/03/15 08:51:00;;;;;;;15.77;7.85;;;7.30;99.90;;;6.73;93.90;98355.25;4999700;28;20136;-72
2022/03/15 08:53:29;;;;;;;23.33;11.80;;;7.40;99.90;;;6.47;94.42;98360.75;5002333;28;20097;-71
2022/03/15 08:55:56;;;;;;;12.32;4.82;;;7.50;99.90;;;6.52;91.77;98368.44;4988228;28;20054;-71
2022/03/15 08:58:23;;;;;;;10.02;5.03;;;7.40;99.90;;;6.52;91.54;98347.81;5001155;28;20085;-71
2022/03/15 09:00:52;;;;;;;13.18;5.35;;;7.40;99.90;;;6.53;92.78;98346.94;5007919;28;20046;-72
2022/03/15 09:03:22;;;;;;;12.70;4.45;;;7.30;99.90;;;6.26;94.12;98354.16;5017180;28;20061;-71
2022/03/15 09:05:50;;;;;;;6.82;2.75;;;7.30;99.90;;;6.18;95.27;98353.41;4999385;28;20046;-72
2022/03/15 09:08:16;;;;;;;10.10;2.47;;;7.30;99.90;;;6.25;93.55;98345.59;5000265;28;20133;-71
2022/03/15 09:10:46;;;;;;;10.07;3.88;;;7.20;99.90;;;6.10;93.95;98347.50;5005434;28;20088;-71
2022/03/15 09:13:16;;;;;;;11.25;4.07;;;7.20;99.90;;;5.93;96.39;98348.53;5001679;28;20054;-72
2022/03/15 09:15:43;;;;;;;9.93;3.78;;;7.10;99.90;;;6.08;98.52;98350.09;5000728;28;20546;-71
2022/03/15 09:18:10;;;;;;;9.63;3.70;;;7.10;99.90;;;5.94;100.00;98352.84;5013956;28;20615;-71
2022/03/15 09:20:38;;;;;;;11.15;3.20;;;7.10;99.90;;;6.05;100.00;98339.81;4999986;28;20169;-71
2022/03/15 09:23:06;;;;;;;12.48;3.63;;;7.10;99.90;;;6.10;100.00;98324.31;5013456;28;20081;-71
2022/03/15 09:25:34;;;;;;;10.27;4.10;;;7.20;99.90;;;6.14;100.00;98326.81;4998006;28;20138;-71
2022/03/15 09:28:01;;;;;;;12.80;4.60;;;7.30;99.90;;;6.23;100.00;98323.28;5004253;28;20420;-71
2022/03/15 09:30:30;;;;;;;9.80;3.22;;;7.20;99.90;;;6.22;100.00;98324.13;4998031;28;20144;-71
2022/03/15 09:32:59;;;;;;;12.55;4.70;;;7.30;99.90;;;6.35;100.00;98323.09;5001127;28;20101;-72
2022/03/15 09:35:26;;;;;;;16.42;5.13;;;7.30;99.90;;;6.27;100.00;98333.53;4997303;28;20141;-71
2022/03/15 09:37:54;;;;;;;15.60;8.00;;;7.30;99.90;;;6.23;100.00;98325.84;5000050;28;20082;-71
2022/03/15 09:40:25;;;;;;;10.95;4.30;;;7.30;99.90;;;6.39;100.00;98319.63;4997296;28;20342;-71
2022/03/15 09:43:00;;;;;;;9.98;4.18;;;7.30;99.90;;;6.37;100.00;98315.34;5001487;28;20054;-71
2022/03/15 09:45:34;;;;;;;11.00;3.92;;;7.30;99.90;;;6.64;100.00;98311.53;5004306;28;20085;-71
2022/03/15 09:48:06;;;;;;;10.15;4.20;;;7.30;99.90;;;6.78;100.00;98319.06;5000320;28;20113;-71
2022/03/15 09:50:34;;;;;;;8.45;3.83;;;7.40;99.90;;;6.88;100.00;98312.84;5016914;28;20076;-71
2022/03/15 09:53:01;;;;;;;10.93;5.55;;;7.50;99.90;;;7.04;100.00;98301.41;4999560;28;20560;-71
2022/03/15 09:55:28;;;;;;;14.88;5.68;;;7.60;99.90;;;7.22;100.00;98296.81;5000854;28;20050;-72
2022/03/15 09:57:56;;;;;;;25.38;12.18;;;7.70;99.90;;;7.24;100.00;98295.06;4997829;28;20080;-72
2022/03/15 10:00:24;;;;;;;57.40;30.35;;;7.80;99.90;;;7.10;100.00;98283.25;4998707;28;20053;-71
2022/03/15 10:02:51;;;;;;;29.15;13.93;;;7.80;99.90;;;6.91;100.00;98280.13;4999940;28;20088;-71
2022/03/15 10:05:19;;;;;;;36.70;19.10;;;7.70;99.90;;;6.97;100.00;98270.56;5018933;28;20198;-71
2022/03/15 10:07:47;;;;;;;24.38;12.50;;;7.70;99.90;;;7.09;100.00;98270.34;5002671;28;20405;-71
2022/03/15 10:10:15;;;;;;;17.33;8.63;;;7.70;99.90;;;7.22;100.00;98261.50;5002428;28;20049;-72
2022/03/15 10:12:42;;;;;;;21.23;9.75;;;7.80;99.90;;;7.21;100.00;98264.13;5001307;28;20351;-72
2022/03/15 10:15:16;;;;;;;24.05;10.00;;;7.90;99.90;;;7.31;100.00;98256.19;5002343;28;20137;-71
2022/03/15 10:17:56;;;;;;;18.42;8.65;;;7.90;99.90;;;7.37;100.00;98257.81;5001367;28;20074;-72
2022/03/15 10:20:31;;;;;;;15.63;6.50;;;7.90;99.90;;;7.49;100.00;98254.97;4999555;28;20050;-71
2022/03/15 10:23:02;;;;;;;11.73;4.60;;;8.00;99.90;;;7.50;100.00;98245.50;5001276;28;20046;-71
2022/03/15 10:25:34;;;;;;;10.40;4.72;;;8.10;99.90;;;7.52;100.00;98243.72;5001525;28;20428;-71